Time;durP1;ratioP1;P1;durP2;ratioP2;P2;SDS_P1;SDS_P2;PMS_P1;PMS_P2;Temp;Humidity;BMP_temperature;BMP_pressure;BME280_temperature;BME280_humidity;BME280_pressure;Samples;Min_cycle;Max_cycle;Signal;HPM_P1;HPM_P2
2021/05/07 00:00:01;;;;;;;3.67;3.00;;;;;;;8.05;72.30;98422.09;5060429;28;20240;-81
2021/05/07 00:02:30;;;;;;;4.97;2.70;;;;;;;8.14;72.37;98449.22;5042385;28;20225;-81
2021/05/07 00:04:57;;;;;;;4.40;2.90;;;;;;;8.10;71.89;98418.72;5042589;28;20263;-84
2021/05/07 00:07:27;;;;;;;3.47;2.80;;;;;;;8.10;71.78;98408.88;5045058;28;20244;-85
2021/05/07 00:09:54;;;;;;;3.70;2.97;;;;;;;8.05;71.34;98414.09;5044328;28;20215;-81
2021/05/07 00:12:21;;;;;;;3.37;2.37;;;;;;;8.21;71.50;98428.59;5044001;28;20332;-81
2021/05/07 00:14:50;;;;;;;3.20;2.77;;;;;;;8.15;71.63;98430.31;5061773;28;20230;-82
2021/05/07 00:17:17;;;;;;;3.47;2.80;;;;;;;8.21;71.29;98426.69;5044512;28;20561;-82
2021/05/07 00:19:44;;;;;;;4.30;2.80;;;;;;;8.19;71.39;98444.81;5044443;28;20240;-82
2021/05/07 00:22:11;;;;;;;3.80;2.83;;;;;;;8.23;71.12;98448.63;5043094;28;20227;-81
2021/05/07 00:24:38;;;;;;;4.43;2.67;;;;;;;8.32;71.18;98454.47;5061707;28;20232;-84
2021/05/07 00:27:07;;;;;;;3.67;2.97;;;;;;;8.23;71.24;98467.31;5045111;28;20221;-82
2021/05/07 00:29:36;;;;;;;3.03;2.67;;;;;;;8.28;70.26;98463.94;5023305;28;20540;-81
2021/05/07 00:32:02;;;;;;;3.77;2.90;;;;;;;8.18;70.78;98447.72;5040280;28;20233;-80
2021/05/07 00:34:29;;;;;;;3.13;2.50;;;;;;;8.25;70.44;98449.22;5057594;28;20255;-81
2021/05/07 00:36:55;;;;;;;3.37;2.70;;;;;;;8.16;70.39;98418.63;5059376;28;20229;-81
2021/05/07 00:39:22;;;;;;;2.70;2.30;;;;;;;8.15;70.50;98430.31;5043875;28;20264;-82
2021/05/07 00:41:48;;;;;;;3.43;2.50;;;;;;;8.10;70.10;98435.53;5063561;28;20227;-82
2021/05/07 00:44:18;;;;;;;4.13;2.70;;;;;;;8.14;71.09;98439.38;5065371;28;20221;-81
2021/05/07 00:46:46;;;;;;;3.93;2.70;;;;;;;8.19;70.63;98449.34;5046816;28;20226;-81
2021/05/07 00:49:13;;;;;;;3.23;2.33;;;;;;;8.04;71.14;98417.78;5072859;23;20284;-84
2021/05/07 00:51:40;;;;;;;2.50;2.30;;;;;;;8.06;71.31;98421.06;5049379;28;20236;-81
2021/05/07 00:54:09;;;;;;;3.13;2.30;;;;;;;8.11;71.88;98423.84;5050181;28;20231;-82
2021/05/07 00:56:36;;;;;;;3.40;2.47;;;;;;;8.14;71.14;98428.69;5049028;28;20289;-82
2021/05/07 00:59:02;;;;;;;3.33;2.33;;;;;;;8.19;71.31;98425.31;5047079;28;20312;-81
2021/05/07 01:01:32;;;;;;;3.90;2.30;;;;;;;8.21;70.99;98433.91;5065950;28;20671;-81
2021/05/07 01:03:59;;;;;;;3.23;2.43;;;;;;;8.37;71.40;98430.56;5028916;28;20221;-83
2021/05/07 01:06:26;;;;;;;2.77;2.13;;;;;;;8.25;71.53;98432.41;5030061;28;20229;-81
2021/05/07 01:08:56;;;;;;;2.60;2.33;;;;;;;8.27;71.29;98438.31;5063425;28;20256;-81
2021/05/07 01:11:23;;;;;;;3.10;2.30;;;;;;;8.20;71.28;98433.09;5032168;28;20257;-81
2021/05/07 01:13:53;;;;;;;2.43;2.23;;;;;;;8.21;70.75;98429.38;5048769;28;20217;-81
2021/05/07 01:16:22;;;;;;;3.07;2.10;;;;;;;8.35;70.85;98436.13;5065060;28;20264;-81
2021/05/07 01:18:49;;;;;;;2.73;2.50;;;;;;;8.25;71.46;98425.22;5047886;28;20301;-83
2021/05/07 01:21:16;;;;;;;3.13;2.40;;;;;;;8.30;71.03;98420.03;5049587;28;20235;-82
2021/05/07 01:23:43;;;;;;;4.33;2.50;;;;;;;8.29;70.76;98410.38;5049870;28;20229;-81
2021/05/07 01:26:09;;;;;;;3.77;2.37;;;;;;;8.40;70.44;98428.22;5032097;28;20229;-81
2021/05/07 01:28:37;;;;;;;6.97;2.60;;;;;;;8.40;71.24;98425.56;5047450;28;20315;-82
2021/05/07 01:31:03;;;;;;;4.30;2.60;;;;;;;8.34;70.91;98441.72;5063187;28;20233;-81
2021/05/07 01:33:34;;;;;;;4.00;2.73;;;;;;;8.34;71.12;98423.84;5064171;28;20229;-81
2021/05/07 01:36:02;;;;;;;3.37;2.37;;;;;;;8.48;70.50;98423.59;5046372;28;20233;-81
2021/05/07 01:38:29;;;;;;;2.60;2.40;;;;;;;8.45;70.54;98406.16;5063433;28;20613;-82
2021/05/07 01:40:57;;;;;;;5.73;2.20;;;;;;;8.34;70.68;98388.34;5048111;28;20223;-82
2021/05/07 01:43:31;;;;;;;2.83;2.40;;;;;;;8.35;70.75;98365.94;5049974;28;20230;-81
2021/05/07 01:46:01;;;;;;;3.00;2.47;;;;;;;8.47;70.62;98387.25;5068369;28;20225;-81
2021/05/07 01:48:27;;;;;;;2.43;2.23;;;;;;;8.40;71.19;98377.50;5049926;28;20712;-81
2021/05/07 01:50:59;;;;;;;3.33;2.60;;;;;;;8.53;70.10;98392.47;5068226;28;20289;-84
2021/05/07 01:53:28;;;;;;;3.73;2.30;;;;;;;8.55;70.49;98387.69;5067301;28;20256;-82
2021/05/07 01:55:57;;;;;;;3.00;2.10;;;;;;;8.52;70.12;98382.84;5068341;28;20301;-81
2021/05/07 01:58:41;;;;;;;2.87;2.20;;;;;;;8.52;69.85;98369.50;5066404;28;20228;-81
2021/05/07 02:01:09;;;;;;;3.20;2.50;;;;;;;8.70;69.67;98360.50;5049337;28;20588;-82
2021/05/07 02:03:38;;;;;;;2.53;2.23;;;;;;;8.69;69.73;98354.34;5049592;28;20229;-81
2021/05/07 02:06:10;;;;;;;3.47;2.27;;;;;;;8.66;70.33;98349.47;5044629;28;20238;-82
2021/05/07 02:08:43;;;;;;;3.23;2.20;;;;;;;8.67;69.91;98350.28;5046767;28;20222;-82
2021/05/07 02:11:12;;;;;;;2.73;2.30;;;;;;;8.66;70.01;98344.13;5044723;28;20253;-81
2021/05/07 02:13:39;;;;;;;2.77;2.37;;;;;;;8.68;70.24;98358.03;5045840;28;20230;-81
2021/05/07 02:16:05;;;;;;;2.77;2.00;;;;;;;8.67;70.44;98358.31;5032608;28;20229;-82
2021/05/07 02:18:37;;;;;;;3.87;2.53;;;;;;;8.68;69.93;98358.03;5066178;28;20252;-81
2021/05/07 02:21:10;;;;;;;2.30;2.10;;;;;;;8.71;69.73;98368.28;5067065;28;20232;-85
2021/05/07 02:23:37;;;;;;;3.20;2.10;;;;;;;8.72;70.04;98369.91;5067199;28;20529;-81
2021/05/07 02:26:05;;;;;;;3.17;2.40;;;;;;;8.88;70.04;98384.34;5031754;28;20236;-81
2021/05/07 02:28:37;;;;;;;2.80;2.47;;;;;;;8.78;70.33;98368.09;5046695;28;20275;-80
2021/05/07 02:31:04;;;;;;;2.73;2.33;;;;;;;8.69;70.34;98389.03;5064878;28;20205;-81
2021/05/07 02:33:33;;;;;;;2.50;2.30;;;;;;;8.73;70.68;98410.72;5030983;28;20232;-81
2021/05/07 02:36:00;;;;;;;4.40;2.53;;;;;;;8.79;70.65;98421.28;5045516;28;20684;-81
2021/05/07 02:38:30;;;;;;;3.37;2.40;;;;;;;8.70;70.32;98414.72;5028384;28;20278;-82
2021/05/07 02:40:57;;;;;;;3.63;2.50;;;;;;;8.77;70.84;98427.94;5031510;28;20217;-81
2021/05/07 02:43:23;;;;;;;3.03;2.70;;;;;;;8.82;70.92;98433.34;5033002;28;20636;-81
2021/05/07 02:45:50;;;;;;;2.53;2.33;;;;;;;8.78;70.90;98413.50;5066225;28;20618;-82
2021/05/07 02:48:17;;;;;;;4.60;2.40;;;;;;;8.68;70.85;98408.78;5066256;28;20192;-81
2021/05/07 02:50:43;;;;;;;3.73;2.47;;;;;;;8.72;71.30;98414.47;5032025;28;20244;-82
2021/05/07 02:53:13;;;;;;;2.77;2.27;;;;;;;8.77;71.43;98404.69;5048507;28;20255;-82
2021/05/07 02:55:40;;;;;;;3.00;2.40;;;;;;;8.79;71.21;98415.94;5064437;28;20240;-82
2021/05/07 02:58:19;;;;;;;3.53;2.50;;;;;;;8.67;71.55;98409.03;5065005;28;20259;-81
2021/05/07 03:00:46;;;;;;;3.57;2.50;;;;;;;8.71;72.06;98411.00;5048517;28;20236;-81
2021/05/07 03:03:12;;;;;;;2.53;2.30;;;;;;;8.75;71.96;98430.84;5048537;28;20641;-82
2021/05/07 03:05:38;;;;;;;2.70;2.20;;;;;;;8.84;72.03;98440.09;5044945;28;20256;-82
2021/05/07 03:08:05;;;;;;;3.90;2.50;;;;;;;8.78;71.94;98430.34;5025834;28;20280;-81
2021/05/07 03:10:31;;;;;;;2.60;2.40;;;;;;;8.78;72.16;98432.19;5025156;28;20648;-81
2021/05/07 03:12:58;;;;;;;3.63;2.53;;;;;;;8.76;72.64;98435.13;5039541;28;20238;-80
2021/05/07 03:15:24;;;;;;;3.63;2.40;;;;;;;8.80;72.22;98436.28;5039351;28;20257;-81
2021/05/07 03:17:53;;;;;;;3.57;2.60;;;;;;;8.74;72.19;98394.50;5041046;28;20672;-80
2021/05/07 03:20:19;;;;;;;2.60;2.40;;;;;;;8.88;71.94;98426.25;5043007;28;20225;-81
2021/05/07 03:22:47;;;;;;;3.00;2.37;;;;;;;8.83;72.50;98414.44;5043247;28;20230;-81
2021/05/07 03:25:14;;;;;;;3.63;2.60;;;;;;;8.80;73.14;98412.25;5061977;28;20225;-81
2021/05/07 03:27:41;;;;;;;3.37;2.47;;;;;;;8.81;73.10;98407.72;5061114;28;20312;-82
2021/05/07 03:30:08;;;;;;;3.27;2.60;;;;;;;8.82;73.68;98411.97;5065693;28;20224;-82
2021/05/07 03:32:39;;;;;;;4.67;3.20;;;;;;;8.85;73.41;98408.84;5086464;22;20233;-82
2021/05/07 03:35:08;;;;;;;4.63;3.03;;;;;;;8.79;73.93;98428.50;5085172;28;20222;-81
2021/05/07 03:37:35;;;;;;;3.87;2.83;;;;;;;8.82;73.84;98433.34;5085595;28;20533;-81
2021/05/07 03:40:06;;;;;;;4.83;3.07;;;;;;;8.74;74.44;98428.38;5083902;28;20213;-81
2021/05/07 03:42:33;;;;;;;3.33;3.03;;;;;;;8.80;74.16;98436.28;5084611;28;20234;-82
2021/05/07 03:45:02;;;;;;;3.33;3.03;;;;;;;8.75;74.61;98430.03;5068605;28;20549;-81
2021/05/07 03:47:31;;;;;;;5.10;2.83;;;;;;;8.78;74.23;98437.53;5066041;28;20225;-81
2021/05/07 03:49:57;;;;;;;4.50;3.00;;;;;;;8.67;74.76;98420.53;5064811;28;20241;-81
2021/05/07 03:52:24;;;;;;;3.70;3.13;;;;;;;8.81;74.75;98442.44;5058762;28;20221;-81
2021/05/07 03:54:52;;;;;;;3.43;3.13;;;;;;;8.76;74.49;98437.00;5080049;28;20232;-82
2021/05/07 03:57:25;;;;;;;3.53;2.90;;;;;;;8.81;74.54;98463.81;5085046;28;20235;-84
2021/05/07 03:59:53;;;;;;;3.50;3.10;;;;;;;8.79;74.78;98472.03;5067366;28;20228;-82
2021/05/07 04:02:24;;;;;;;3.00;2.73;;;;;;;8.91;74.99;98474.69;5082949;28;20252;-82
2021/05/07 04:04:52;;;;;;;4.63;3.30;;;;;;;8.91;73.96;98474.69;5086373;28;20224;-83
2021/05/07 04:07:20;;;;;;;3.20;2.90;;;;;;;8.96;73.84;98452.63;5057304;28;20229;-84
2021/05/07 04:09:57;;;;;;;5.00;2.97;;;;;;;9.11;73.17;98467.06;5065561;28;20251;-84
2021/05/07 04:15:14;;;;;;;5.13;3.00;;;;;;;9.19;73.58;98476.56;5052154;28;20229;-82
2021/05/07 04:17:42;;;;;;;3.77;2.87;;;;;;;9.21;73.90;98475.28;5066174;28;20229;-83
2021/05/07 04:20:12;;;;;;;3.37;2.80;;;;;;;9.26;73.29;98478.03;5062747;28;20264;-83
2021/05/07 04:22:40;;;;;;;4.00;2.50;;;;;;;9.24;73.44;98482.00;5077786;28;20274;-81
2021/05/07 04:25:09;;;;;;;3.60;2.80;;;;;;;9.27;73.51;98481.53;5067507;28;20255;-80
2021/05/07 04:27:37;;;;;;;2.90;2.70;;;;;;;9.39;72.92;98476.94;5084829;28;20217;-80
2021/05/07 04:30:06;;;;;;;3.93;2.60;;;;;;;9.42;72.87;98484.50;5050341;28;20224;-81
2021/05/07 04:32:33;;;;;;;2.73;2.47;;;;;;;9.54;72.71;98485.22;5069969;28;20229;-80
2021/05/07 04:35:00;;;;;;;3.57;2.70;;;;;;;9.55;71.96;98473.50;5024887;28;20225;-79
2021/05/07 04:37:27;;;;;;;4.83;2.70;;;;;;;9.64;72.18;98497.97;5036658;28;20228;-79
2021/05/07 04:39:53;;;;;;;3.03;2.50;;;;;;;9.58;72.19;98502.41;5080363;28;20233;-79
2021/05/07 04:42:19;;;;;;;3.60;2.83;;;;;;;9.56;72.41;98503.72;5046290;28;20229;-80
2021/05/07 04:44:46;;;;;;;3.80;2.70;;;;;;;9.59;72.42;98505.91;5063626;28;20217;-79
2021/05/07 04:47:13;;;;;;;5.33;2.97;;;;;;;9.59;72.26;98520.09;5063704;28;20278;-80
2021/05/07 04:49:39;;;;;;;3.30;2.70;;;;;;;9.60;72.25;98528.94;5079864;28;20231;-79
2021/05/07 04:52:06;;;;;;;4.53;2.70;;;;;;;9.70;72.67;98539.81;5073574;28;20563;-80
2021/05/07 04:54:34;;;;;;;3.53;2.40;;;;;;;9.86;71.94;98544.38;5043493;28;20247;-79
2021/05/07 04:57:01;;;;;;;4.60;2.83;;;;;;;9.85;71.87;98550.75;5063434;28;20220;-80
2021/05/07 04:59:29;;;;;;;2.67;2.37;;;;;;;9.88;72.39;98555.66;5064039;28;20228;-80
2021/05/07 05:01:55;;;;;;;3.73;2.97;;;;;;;9.93;71.71;98562.97;5078713;28;20236;-80
2021/05/07 05:04:21;;;;;;;5.47;3.17;;;;;;;9.92;71.58;98555.97;5059794;28;20263;-79
2021/05/07 05:06:48;;;;;;;4.03;2.70;;;;;;;10.02;71.67;98566.84;5062496;28;20311;-79
2021/05/07 05:09:14;;;;;;;3.77;2.47;;;;;;;10.02;71.94;98565.00;5081472;28;20232;-80
2021/05/07 05:11:40;;;;;;;3.57;2.70;;;;;;;9.96;71.84;98557.13;5081536;28;20251;-78
2021/05/07 05:14:07;;;;;;;4.13;2.93;;;;;;;9.99;71.89;98560.09;5064330;28;20233;-79
2021/05/07 05:16:33;;;;;;;4.03;2.70;;;;;;;10.03;72.49;98560.47;5067188;28;20232;-80
2021/05/07 05:19:00;;;;;;;4.07;2.60;;;;;;;10.06;71.95;98558.09;5067863;28;20229;-82
2021/05/07 05:21:26;;;;;;;3.43;2.50;;;;;;;10.15;71.83;98569.22;5066026;28;20220;-79
2021/05/07 05:23:52;;;;;;;2.90;2.33;;;;;;;10.20;71.45;98557.81;5070305;28;20259;-81
2021/05/07 05:26:19;;;;;;;5.30;2.90;;;;;;;10.28;71.25;98558.22;5068385;28;20235;-78
2021/05/07 05:28:45;;;;;;;4.50;2.70;;;;;;;10.36;70.52;98544.41;5065326;28;20299;-79
2021/05/07 05:31:11;;;;;;;5.37;3.10;;;;;;;10.42;70.63;98540.78;5088303;28;20228;-79
2021/05/07 05:33:40;;;;;;;3.77;2.90;;;;;;;10.42;70.78;98522.03;5089759;28;20248;-81
2021/05/07 05:36:12;;;;;;;8.63;3.00;;;;;;;10.44;70.29;98514.56;5096009;22;20221;-80
2021/05/07 05:38:38;;;;;;;4.83;2.70;;;;;;;10.45;70.46;98520.75;5101363;28;20224;-80
2021/05/07 05:41:05;;;;;;;4.60;2.93;;;;;;;10.49;70.51;98525.38;5074691;28;20254;-81
2021/05/07 05:43:34;;;;;;;3.67;2.70;;;;;;;10.62;69.80;98523.38;5100800;28;20221;-80
2021/05/07 05:46:01;;;;;;;6.67;3.30;;;;;;;10.64;69.79;98522.06;5089432;28;20232;-79
2021/05/07 05:48:27;;;;;;;5.83;2.90;;;;;;;10.69;70.08;98529.38;5089981;28;20209;-80
2021/05/07 05:50:55;;;;;;;6.57;2.73;;;;;;;10.71;70.58;98543.34;5072414;28;20271;-83
2021/05/07 05:53:23;;;;;;;4.37;2.63;;;;;;;10.79;70.29;98537.53;5088197;28;20624;-80
2021/05/07 05:55:50;;;;;;;7.63;2.90;;;;;;;10.84;70.28;98540.28;5073173;28;20246;-79
2021/05/07 05:58:19;;;;;;;3.53;2.40;;;;;;;10.94;70.09;98540.44;5094081;28;20231;-79
2021/05/07 06:00:46;;;;;;;4.50;2.90;;;;;;;10.92;70.04;98527.28;5091760;28;20227;-80
2021/05/07 06:03:12;;;;;;;5.87;3.13;;;;;;;10.99;69.49;98532.47;5084249;28;20534;-79
2021/05/07 06:05:41;;;;;;;5.63;3.07;;;;;;;11.02;69.00;98532.78;5069847;28;20241;-81
2021/05/07 06:08:08;;;;;;;3.23;2.70;;;;;;;11.06;68.90;98549.16;5076320;28;20227;-82
2021/05/07 06:10:39;;;;;;;3.57;2.57;;;;;;;11.09;68.71;98558.59;5089769;28;20230;-80
2021/05/07 06:13:05;;;;;;;7.07;2.90;;;;;;;11.16;68.70;98557.34;5089245;28;20184;-79
2021/05/07 06:15:33;;;;;;;4.10;2.60;;;;;;;11.20;68.68;98557.66;5111397;28;20185;-82
2021/05/07 06:18:00;;;;;;;5.00;3.00;;;;;;;11.16;68.31;98553.84;5075136;28;20234;-80
2021/05/07 06:20:27;;;;;;;4.67;2.93;;;;;;;11.31;68.42;98572.81;5070066;28;20220;-78
2021/05/07 06:22:55;;;;;;;6.77;3.20;;;;;;;11.28;67.85;98566.09;5086759;28;20292;-81
2021/05/07 06:25:38;;;;;;;3.67;2.60;;;;;;;11.35;68.08;98585.47;5089146;22;20240;-79
2021/05/07 06:31:28;;;;;;;2.60;2.37;;;;;;;11.50;66.72;98587.53;5076532;28;20212;-81
2021/05/07 06:34:01;;;;;;;2.70;2.43;;;;;;;11.63;66.48;98586.31;5061795;28;20255;-82
2021/05/07 06:36:32;;;;;;;5.30;3.50;;;;;;;11.77;67.00;98591.06;5093428;28;20235;-80
2021/05/07 06:39:00;;;;;;;4.93;3.40;;;;;;;11.83;66.83;98589.25;5094404;28;20300;-82
2021/05/07 06:41:28;;;;;;;3.33;2.40;;;;;;;11.83;65.91;98581.22;5092422;28;20229;-79
2021/05/07 06:44:01;;;;;;;3.93;2.60;;;;;;;11.99;65.78;98600.97;5070244;28;20229;-82
2021/05/07 06:46:30;;;;;;;5.10;2.17;;;;;;;12.21;64.56;98604.41;5081043;28;20219;-80
2021/05/07 06:49:12;;;;;;;3.77;2.20;;;;;;;12.41;64.13;98611.84;5060367;28;20229;-81
2021/05/07 06:51:45;;;;;;;3.80;2.27;;;;;;;12.71;62.91;98622.81;5217019;23;20228;-81
2021/05/07 06:54:26;;;;;;;3.47;2.10;;;;;;;13.20;60.82;98620.75;5094775;28;20227;-80
2021/05/07 06:57:11;;;;;;;3.63;2.40;;;;;;;13.77;58.60;98620.72;5074648;28;20264;-79
2021/05/07 06:59:46;;;;;;;5.33;3.00;;;;;;;14.22;57.62;98644.28;5082549;28;20233;-79
2021/05/07 07:02:15;;;;;;;2.43;1.70;;;;;;;14.51;56.42;98650.78;5085001;28;20224;-81
2021/05/07 07:04:51;;;;;;;4.33;3.10;;;;;;;14.51;56.00;98642.72;5075887;28;20228;-83
2021/05/07 07:07:17;;;;;;;2.67;2.20;;;;;;;14.45;55.93;98643.00;5074824;28;20831;-83
2021/05/07 07:09:43;;;;;;;3.40;2.27;;;;;;;14.34;56.38;98630.53;5050091;28;20229;-81
2021/05/07 07:12:10;;;;;;;2.70;2.00;;;;;;;14.21;56.23;98617.59;5037540;28;20679;-82
2021/05/07 07:14:39;;;;;;;2.90;2.40;;;;;;;14.22;56.49;98620.03;5044212;28;20237;-86
2021/05/07 07:17:06;;;;;;;4.43;2.00;;;;;;;14.26;56.71;98623.00;5058250;28;20579;-81
2021/05/07 07:19:34;;;;;;;4.53;1.80;;;;;;;14.39;56.06;98609.84;5060636;28;20312;-86
2021/05/07 07:22:03;;;;;;;3.50;1.80;;;;;;;14.47;54.33;98611.19;5073744;28;20225;-83
2021/05/07 07:24:30;;;;;;;3.40;2.00;;;;;;;14.51;54.11;98591.50;5053355;28;20234;-85
2021/05/07 07:26:56;;;;;;;4.17;1.90;;;;;;;14.43;54.13;98589.34;5054336;28;20509;-87
2021/05/07 07:29:23;;;;;;;2.63;2.10;;;;;;;14.30;54.81;98597.94;5056863;28;20582;-85
2021/05/07 07:31:51;;;;;;;5.80;2.00;;;;;;;14.27;56.42;98617.34;5057743;28;20632;-86
2021/05/07 07:34:19;;;;;;;4.80;2.67;;;;;;;14.26;57.00;98631.91;5055128;28;20229;-85
2021/05/07 07:36:45;;;;;;;3.03;2.30;;;;;;;14.21;57.74;98626.50;5037459;28;20571;-86
2021/05/07 07:39:19;;;;;;;3.17;2.40;;;;;;;14.36;57.24;98631.13;5037176;28;20219;-87
2021/05/07 07:41:49;;;;;;;3.33;2.60;;;;;;;14.41;57.42;98625.75;5054338;28;20281;-84
2021/05/07 07:44:19;;;;;;;3.47;2.50;;;;;;;14.51;57.07;98615.75;5036819;28;20523;-86
2021/05/07 07:46:46;;;;;;;3.30;2.10;;;;;;;14.89;56.24;98624.38;5056160;28;20229;-87
2021/05/07 07:49:13;;;;;;;4.50;2.70;;;;;;;15.36;55.04;98627.50;5057211;28;20311;-87
2021/05/07 07:51:39;;;;;;;8.73;4.70;;;;;;;15.69;53.39;98617.97;5054758;28;20652;-84
2021/05/07 07:54:07;;;;;;;5.07;3.63;;;;;;;16.32;52.02;98636.28;5057166;28;20229;-85
2021/05/07 07:56:34;;;;;;;4.27;2.57;;;;;;;16.86;50.16;98618.00;5040361;28;20304;-87
2021/05/07 07:59:01;;;;;;;4.23;2.27;;;;;;;17.41;49.01;98621.22;5037279;28;20254;-85
2021/05/07 08:01:27;;;;;;;4.00;2.00;;;;;;;17.59;48.16;98632.16;5052573;28;20228;-85
2021/05/07 08:03:55;;;;;;;4.17;2.00;;;;;;;17.49;47.67;98618.72;5057274;28;20220;-85
2021/05/07 08:06:22;;;;;;;5.90;1.87;;;;;;;17.32;47.15;98606.72;5030444;28;20239;-84
2021/05/07 08:08:50;;;;;;;4.37;1.70;;;;;;;17.12;46.51;98597.72;5054473;28;20535;-83
2021/05/07 08:11:16;;;;;;;2.97;1.60;;;;;;;17.06;46.49;98609.72;5042920;28;20229;-86
2021/05/07 08:13:43;;;;;;;6.10;1.47;;;;;;;17.29;46.05;98593.78;5020389;28;20229;-86
2021/05/07 08:16:10;;;;;;;6.93;1.70;;;;;;;17.75;45.29;98594.03;5044524;28;20225;-83
2021/05/07 08:18:38;;;;;;;5.23;1.30;;;;;;;18.08;44.49;98587.63;5036419;28;20283;-85
2021/05/07 08:21:04;;;;;;;2.33;0.97;;;;;;;18.26;42.19;98573.25;5063140;28;20217;-86
2021/05/07 08:23:31;;;;;;;3.93;1.03;;;;;;;18.27;42.01;98574.88;5048198;28;20225;-87
2021/05/07 08:25:58;;;;;;;1.67;1.23;;;;;;;18.07;41.34;98547.25;5044284;28;20221;-85
2021/05/07 08:28:24;;;;;;;2.97;1.00;;;;;;;18.18;41.68;98564.97;5056421;28;20567;-85
2021/05/07 08:30:51;;;;;;;2.10;0.80;;;;;;;18.21;41.56;98575.22;5033661;28;20225;-84
2021/05/07 08:33:18;;;;;;;2.10;0.70;;;;;;;18.26;40.54;98567.03;5037112;28;20230;-84
2021/05/07 08:35:45;;;;;;;1.37;0.77;;;;;;;18.38;40.28;98581.72;5059112;28;20275;-85
2021/05/07 08:38:11;;;;;;;1.10;0.60;;;;;;;18.64;39.15;98573.22;5039321;28;20221;-83
2021/05/07 08:40:38;;;;;;;2.13;0.60;;;;;;;18.87;39.28;98593.97;5034000;28;20216;-85
2021/05/07 08:43:11;;;;;;;3.27;0.70;;;;;;;19.19;38.07;98603.97;5056721;28;20232;-84
2021/05/07 08:45:37;;;;;;;3.53;0.50;;;;;;;19.45;37.14;98590.75;5040146;28;20271;-85
2021/05/07 08:48:09;;;;;;;1.83;0.60;;;;;;;19.71;36.90;98592.63;5056073;28;20283;-84
2021/05/07 08:50:47;;;;;;;3.37;0.87;;;;;;;19.45;38.09;98580.69;5022747;28;20216;-84
2021/05/07 08:53:15;;;;;;;2.03;0.90;;;;;;;19.68;37.09;98582.38;5048195;28;20237;-85
2021/05/07 08:55:42;;;;;;;1.53;0.70;;;;;;;20.01;36.12;98583.03;5020134;28;20235;-84
2021/05/07 08:58:08;;;;;;;2.83;0.50;;;;;;;20.56;35.09;98580.13;5037105;28;20280;-85
2021/05/07 09:00:34;;;;;;;2.30;1.07;;;;;;;20.80;34.07;98571.63;5023715;28;20229;-83
2021/05/07 09:03:09;;;;;;;0.90;0.50;;;;;;;20.95;33.23;98579.41;5057953;28;20320;-86
2021/05/07 09:05:37;;;;;;;1.73;0.67;;;;;;;20.84;33.14;98586.22;5040209;28;20236;-85
2021/05/07 09:08:05;;;;;;;2.53;0.90;;;;;;;21.05;34.30;98587.28;5042380;28;20259;-82
2021/05/07 09:10:33;;;;;;;2.47;0.70;;;;;;;21.52;32.89;98583.00;5043338;28;20221;-83
2021/05/07 09:12:59;;;;;;;2.40;0.73;;;;;;;21.31;32.34;98593.69;5076438;28;20517;-85
2021/05/07 09:15:40;;;;;;;5.17;1.00;;;;;;;20.98;33.77;98601.38;5026766;28;20226;-82
2021/05/07 09:18:07;;;;;;;2.30;0.70;;;;;;;20.03;34.22;98582.69;5039687;28;20229;-84
2021/05/07 09:20:36;;;;;;;4.83;1.20;;;;;;;19.96;35.21;98590.47;5039934;28;20300;-85
2021/05/07 09:23:05;;;;;;;5.97;1.00;;;;;;;20.00;35.00;98588.75;5056539;28;20248;-83
2021/05/07 09:25:31;;;;;;;3.57;0.80;;;;;;;20.52;34.53;98609.06;5059750;28;20233;-85
2021/05/07 09:28:08;;;;;;;2.50;0.70;;;;;;;20.64;34.17;98604.66;5041656;28;20632;-83
2021/05/07 09:30:36;;;;;;;2.53;0.80;;;;;;;20.70;34.58;98610.00;5057635;28;20632;-83
2021/05/07 09:33:12;;;;;;;2.33;0.70;;;;;;;21.09;33.43;98599.97;5026750;28;20504;-80
2021/05/07 09:35:39;;;;;;;1.87;0.67;;;;;;;21.36;33.21;98612.63;5042595;28;20228;-81
2021/05/07 09:38:12;;;;;;;1.53;0.57;;;;;;;21.11;33.35;98621.44;5026833;28;20226;-85
2021/05/07 09:40:41;;;;;;;2.13;0.70;;;;;;;21.00;33.08;98620.91;5026079;28;20689;-82
2021/05/07 09:43:08;;;;;;;2.83;0.80;;;;;;;21.10;33.66;98614.38;5076771;28;20230;-80
2021/05/07 09:45:37;;;;;;;1.53;0.93;;;;;;;21.05;32.82;98626.22;5059320;28;20667;-85
2021/05/07 09:48:14;;;;;;;1.17;0.80;;;;;;;21.06;33.06;98594.34;5041981;28;20221;-83
2021/05/07 09:50:41;;;;;;;2.30;0.70;;;;;;;21.13;32.88;98589.28;5059157;28;20217;-83
2021/05/07 09:53:15;;;;;;;1.90;0.60;;;;;;;21.43;32.16;98614.88;5044543;28;20264;-80
2021/05/07 09:55:42;;;;;;;2.00;0.60;;;;;;;20.91;32.97;98616.50;5022372;28;20228;-83
2021/05/07 09:58:09;;;;;;;0.60;0.40;;;;;;;21.41;32.39;98623.41;5064801;28;20567;-87
2021/05/07 10:00:35;;;;;;;0.77;0.40;;;;;;;21.47;32.17;98624.84;5075398;28;20224;-80
2021/05/07 10:03:02;;;;;;;1.63;0.57;;;;;;;20.95;32.83;98628.41;5048676;28;20231;-80
2021/05/07 10:05:28;;;;;;;3.50;0.43;;;;;;;20.41;33.74;98629.44;5059110;28;20225;-82
2021/05/07 10:07:58;;;;;;;2.90;0.60;;;;;;;19.99;34.73;98612.41;5022330;28;20226;-82
2021/05/07 10:10:27;;;;;;;0.83;0.50;;;;;;;19.80;34.86;98617.19;5054082;28;20230;-80
2021/05/07 10:12:55;;;;;;;1.33;0.50;;;;;;;19.19;36.12;98618.34;5064256;28;20229;-84
2021/05/07 10:15:35;;;;;;;0.87;0.50;;;;;;;19.24;36.02;98614.75;5075591;28;20280;-82
2021/05/07 10:18:06;;;;;;;2.90;0.50;;;;;;;18.95;36.42;98628.56;5058624;28;20225;-85
2021/05/07 10:20:39;;;;;;;1.10;0.40;;;;;;;18.92;36.14;98621.03;5076177;28;20229;-85
2021/05/07 10:23:19;;;;;;;0.90;0.50;;;;;;;19.08;36.35;98619.66;5049506;28;20232;-86
2021/05/07 10:26:07;;;;;;;1.70;0.60;;;;;;;18.89;37.02;98619.72;5037896;28;20225;-87
2021/05/07 10:28:45;;;;;;;2.60;0.70;;;;;;;19.42;35.95;98616.56;5035027;28;20644;-84
2021/05/07 10:31:14;;;;;;;1.30;0.47;;;;;;;19.64;36.12;98624.06;5075764;28;20617;-81
2021/05/07 10:33:58;;;;;;;3.10;0.50;;;;;;;19.69;35.96;98618.50;5061546;28;20629;-80
2021/05/07 10:36:36;;;;;;;0.83;0.53;;;;;;;19.79;36.24;98624.53;5022154;28;20225;-81
2021/05/07 10:39:16;;;;;;;0.50;0.43;;;;;;;20.08;36.21;98629.63;5055621;28;20275;-83
2021/05/07 10:41:43;;;;;;;0.80;0.50;;;;;;;20.20;35.70;98629.88;5056196;28;20228;-86
2021/05/07 10:44:11;;;;;;;0.57;0.47;;;;;;;20.65;35.59;98628.06;5074260;28;20653;-86
2021/05/07 10:46:37;;;;;;;1.40;0.57;;;;;;;20.67;35.57;98623.09;5074737;28;20524;-85
2021/05/07 10:49:04;;;;;;;0.87;0.50;;;;;;;20.74;34.41;98630.84;5043246;28;20229;-84
2021/05/07 10:51:30;;;;;;;1.60;0.40;;;;;;;20.46;35.34;98640.22;5056199;28;20234;-81
2021/05/07 10:54:33;;;;;;;1.03;0.40;;;;;;;19.79;36.59;98624.53;5051118;28;20217;-84
2021/05/07 10:56:59;;;;;;;0.97;0.40;;;;;;;19.65;36.73;98631.88;5041111;28;20227;-85
2021/05/07 10:59:26;;;;;;;0.97;0.40;;;;;;;19.66;35.69;98619.09;5074212;28;20224;-87
2021/05/07 11:02:00;;;;;;;1.43;0.40;;;;;;;19.71;36.13;98611.66;5074368;28;20232;-84
2021/05/07 11:04:27;;;;;;;0.90;0.50;;;;;;;19.71;37.00;98606.22;5056997;28;20649;-85
2021/05/07 11:07:02;;;;;;;0.70;0.40;;;;;;;19.57;37.25;98618.19;5045862;28;20651;-79
2021/05/07 11:09:29;;;;;;;1.27;0.50;;;;;;;19.72;37.06;98607.84;5034317;28;20225;-80
2021/05/07 11:12:05;;;;;;;1.57;0.47;;;;;;;20.03;37.18;98637.88;5047960;28;20279;-80
2021/05/07 11:14:42;;;;;;;0.40;0.40;;;;;;;20.29;34.95;98640.84;5043823;28;20226;-84
2021/05/07 11:17:16;;;;;;;0.93;0.50;;;;;;;19.95;34.83;98621.50;5035239;28;20232;-81
2021/05/07 11:19:44;;;;;;;0.33;0.30;;;;;;;20.35;33.18;98626.03;5065246;28;20537;-82
2021/05/07 11:22:10;;;;;;;0.70;0.40;;;;;;;20.06;33.21;98607.34;5044479;28;20217;-85
2021/05/07 11:24:39;;;;;;;2.03;0.40;;;;;;;19.54;34.00;98614.19;5043318;28;20224;-85
2021/05/07 11:27:32;;;;;;;1.47;0.40;;;;;;;19.31;35.44;98605.09;5021036;28;20230;-82
2021/05/07 11:29:58;;;;;;;0.93;0.60;;;;;;;19.11;35.88;98610.91;5020464;28;20244;-80
2021/05/07 11:32:25;;;;;;;1.07;0.70;;;;;;;18.78;36.26;98588.44;5053611;28;20625;-79
2021/05/07 11:34:59;;;;;;;0.80;0.40;;;;;;;19.19;36.03;98596.63;5054108;28;20229;-84
2021/05/07 11:37:28;;;;;;;1.60;0.50;;;;;;;20.16;34.39;98612.56;5037560;28;20224;-81
2021/05/07 11:40:07;;;;;;;0.83;0.50;;;;;;;20.48;33.02;98611.56;5048945;28;20229;-84
2021/05/07 11:42:41;;;;;;;1.00;0.40;;;;;;;20.53;32.57;98603.28;5054702;28;20236;-80
2021/05/07 11:45:10;;;;;;;1.07;0.47;;;;;;;20.71;32.35;98603.44;5069771;28;20240;-83
2021/05/07 11:47:39;;;;;;;1.60;0.40;;;;;;;20.77;32.39;98592.09;5057080;28;20324;-81
2021/05/07 11:50:07;;;;;;;2.83;0.50;;;;;;;20.55;32.58;98598.38;5058640;28;20299;-84